createdAt,value
2017-11-25T18:47:05.642Z,86.38
2017-11-25T18:49:33.048Z,85.64
2017-11-25T18:52:00.576Z,85.77
2017-11-25T18:54:27.988Z,85.45
2017-11-25T18:56:55.510Z,84.94
2017-11-25T18:59:22.980Z,85.32
2017-11-25T19:01:50.461Z,84.83
2017-11-25T19:04:17.897Z,85.49
2017-11-25T19:06:45.363Z,85.68
2017-11-25T19:09:12.763Z,85.53
2017-11-25T19:11:40.211Z,84.72
2017-11-25T19:14:07.610Z,85.36
2017-11-25T19:16:35.108Z,85.56
2017-11-25T19:19:02.584Z,83.99
2017-11-25T19:21:30.012Z,84.23
2017-11-25T19:23:57.404Z,84.94
2017-11-25T19:26:24.837Z,84.66
2017-11-25T19:28:52.312Z,84.03
2017-11-25T19:31:19.959Z,83.50
2017-11-25T19:33:47.741Z,83.46
2017-11-25T19:36:15.177Z,83.64
2017-11-25T19:38:42.656Z,83.38
2017-11-25T19:41:10.168Z,83.64
2017-11-25T19:43:37.622Z,83.09
2017-11-25T19:46:05.048Z,84.16
2017-11-25T19:48:32.700Z,83.01
2017-11-25T19:51:00.097Z,83.21
2017-11-25T19:53:27.540Z,82.33
2017-11-25T19:55:54.998Z,83.15
2017-11-25T19:58:22.432Z,82.89
2017-11-25T20:00:50.005Z,83.09
2017-11-25T20:03:17.466Z,83.39
2017-11-25T20:05:44.869Z,82.60
2017-11-25T20:08:12.489Z,82.11
2017-11-25T20:10:39.880Z,82.55
2017-11-25T20:13:07.398Z,82.66
2017-11-25T20:15:34.802Z,83.47
2017-11-25T20:18:02.240Z,82.99
2017-11-25T20:20:29.703Z,83.19
2017-11-25T20:22:57.171Z,82.49
2017-11-25T20:25:24.560Z,82.31
2017-11-25T20:27:51.987Z,82.37
2017-11-25T20:30:19.404Z,82.61
2017-11-25T20:32:46.968Z,83.19
2017-11-25T20:35:14.470Z,82.41
2017-11-25T20:37:41.902Z,83.36
2017-11-25T20:40:09.354Z,83.62
2017-11-25T20:42:37.029Z,83.71
2017-11-25T20:45:04.473Z,83.79
2017-11-25T20:47:31.902Z,83.85
2017-11-25T20:49:59.468Z,83.94
2017-11-25T20:52:26.864Z,84.96
2017-11-25T20:54:54.385Z,84.48
2017-11-25T20:57:21.779Z,84.43
2017-11-25T20:59:49.253Z,84.59
2017-11-25T21:02:16.709Z,84.96
2017-11-25T21:04:44.159Z,84.84
2017-11-25T21:07:11.559Z,84.69
2017-11-25T21:09:39.008Z,84.59
2017-11-25T21:12:06.450Z,83.83
2017-11-25T21:14:33.948Z,83.52
2017-11-25T21:17:01.418Z,83.76
2017-11-25T21:19:28.863Z,83.33
2017-11-25T21:21:56.258Z,83.80
2017-11-25T21:24:23.717Z,83.91
2017-11-25T21:26:51.120Z,83.85
2017-11-25T21:29:18.775Z,84.29
2017-11-25T21:31:46.242Z,84.61
2017-11-25T21:34:13.797Z,83.98
2017-11-25T21:36:41.234Z,84.28
2017-11-25T21:39:08.685Z,84.59
2017-11-25T21:41:36.089Z,84.24
2017-11-25T21:44:03.572Z,83.81
2017-11-25T21:46:31.043Z,83.58
2017-11-25T21:48:58.515Z,84.27
2017-11-25T21:51:25.922Z,84.40
2017-11-25T21:53:53.394Z,84.29
2017-11-25T21:56:20.792Z,84.29
2017-11-25T21:58:48.231Z,84.36
2017-11-25T22:01:15.697Z,83.93
2017-11-25T22:03:43.136Z,84.15
2017-11-25T22:06:10.609Z,84.21
2017-11-25T22:08:38.076Z,84.20
2017-11-25T22:11:05.544Z,83.86
2017-11-25T22:13:33.039Z,83.93
2017-11-25T22:16:00.465Z,83.79
2017-11-25T22:18:27.911Z,83.76
2017-11-25T22:20:55.386Z,83.79
2017-11-25T22:23:22.792Z,83.71
2017-11-25T22:25:50.256Z,83.65
2017-11-25T22:28:17.814Z,83.93
2017-11-25T22:30:45.416Z,83.36
2017-11-25T22:33:12.988Z,83.36
2017-11-25T22:35:40.451Z,81.78
2017-11-25T22:38:07.847Z,81.65
2017-11-25T22:40:35.424Z,81.62
2017-11-25T22:43:02.883Z,81.98
2017-11-25T22:45:30.362Z,82.19
2017-11-25T22:47:57.783Z,82.83
2017-11-25T22:50:25.278Z,83.55
2017-11-25T22:52:52.721Z,83.19
2017-11-25T22:55:20.264Z,82.76
2017-11-25T22:57:47.726Z,83.19
2017-11-25T23:00:15.377Z,83.26
2017-11-25T23:02:42.821Z,83.29
2017-11-25T23:05:10.300Z,83.55
2017-11-25T23:07:37.713Z,83.02
2017-11-25T23:10:05.132Z,83.15
2017-11-25T23:12:32.566Z,83.42
2017-11-25T23:14:59.972Z,82.90
2017-11-25T23:17:27.420Z,83.41
2017-11-25T23:19:54.809Z,82.15
2017-11-25T23:22:22.320Z,83.01
2017-11-25T23:24:50.199Z,83.08
2017-11-25T23:27:17.740Z,83.10
2017-11-25T23:29:45.281Z,82.72
2017-11-25T23:32:12.774Z,82.62
2017-11-25T23:34:40.165Z,82.06
2017-11-25T23:37:07.738Z,81.12
2017-11-25T23:39:35.293Z,82.05
2017-11-25T23:42:02.707Z,81.13
2017-11-25T23:44:30.095Z,82.19
2017-11-25T23:46:57.531Z,82.16
2017-11-25T23:49:24.924Z,82.36
2017-11-25T23:51:52.390Z,82.96
2017-11-25T23:54:20.128Z,83.05
2017-11-25T23:56:47.674Z,82.43
2017-11-25T23:59:15.236Z,83.34
